Time;durP1;ratioP1;P1;durP2;ratioP2;P2;SDS_P1;SDS_P2;PMS_P1;PMS_P2;Temp;Humidity;BMP_temperature;BMP_pressure;BME280_temperature;BME280_humidity;BME280_pressure;Samples;Min_cycle;Max_cycle;Signal;HPM_P1;HPM_P2
2022/11/25 00:01:32;;;;;;;;;;;;;;;2.68;83.61;99616.72;5035872;28;20049;-70
2022/11/25 00:04:00;;;;;;;;;;;;;;;2.66;83.42;99625.88;5035782;28;19964;-70
2022/11/25 00:06:31;;;;;;;4.60;3.85;;;;;;;2.44;83.12;99606.78;5035363;28;19928;-70
2022/11/25 00:09:02;;;;;;;8.20;4.15;;;;;;;2.51;83.50;99613.69;5035670;28;20068;-70
2022/11/25 00:11:34;;;;;;;2.15;1.95;;;;;;;2.43;83.82;99612.59;5035560;28;20111;-70
2022/11/25 00:14:03;;;;;;;2.20;2.05;;;;;;;2.34;83.35;99622.41;5035293;28;20045;-70
2022/11/25 00:16:31;;;;;;;4.43;2.42;;;;;;;2.32;82.92;99618.13;5035202;28;20056;-70
2022/11/25 00:19:00;;;;;;;7.00;4.17;;;;;;;2.29;83.42;99623.91;5035433;28;20049;-70
2022/11/25 00:21:32;;;;;;;3.97;3.67;;;;;;;2.14;83.02;99610.84;5035039;28;20491;-70
2022/11/25 00:24:03;;;;;;;2.63;1.95;;;;;;;2.22;83.35;99621.16;5034936;28;20761;-70
2022/11/25 00:26:35;;;;;;;2.80;2.60;;;;;;;2.22;83.48;99613.59;5067462;28;20515;-70
2022/11/25 00:29:07;;;;;;;3.95;3.55;;;;;;;2.20;83.26;99620.25;5034969;28;20133;-70
2022/11/25 00:31:38;;;;;;;2.83;2.63;;;;;;;2.11;83.88;99615.81;5050691;28;20037;-70
2022/11/25 00:34:11;;;;;;;2.28;2.13;;;;;;;2.03;83.44;99615.56;5050574;28;20376;-70
2022/11/25 00:36:39;;;;;;;2.28;2.15;;;;;;;1.79;83.41;99607.22;5034840;28;20503;-70
2022/11/25 00:39:11;;;;;;;4.32;3.97;;;;;;;1.76;83.46;99602.09;5034713;28;20037;-70
2022/11/25 00:47:00;;;;;;;;;;;;;;;1.76;83.79;99628.88;5067322;28;20443;-69
2022/11/25 00:49:29;;;;;;;4.60;1.33;;;;;;;1.77;83.57;99635.66;5034559;28;19921;-69
2022/11/25 00:51:58;;;;;;;2.83;2.55;;;;;;;1.73;83.70;99634.69;5034741;28;20570;-69
2022/11/25 00:54:27;;;;;;;3.67;2.53;;;;;;;1.73;82.81;99643.88;5066397;28;20518;-69
2022/11/25 00:56:57;;;;;;;3.53;2.50;;;;;;;1.77;82.98;99640.69;5034379;28;20100;-69
2022/11/25 00:59:25;;;;;;;5.85;5.30;;;;;;;1.82;82.97;99644.22;5049339;28;20063;-69
2022/11/25 01:01:54;;;;;;;2.53;2.15;;;;;;;1.85;83.29;99654.34;5049693;28;20037;-69
2022/11/25 01:04:23;;;;;;;1.75;1.65;;;;;;;1.85;82.67;99655.22;5034411;28;20049;-69
2022/11/25 01:06:55;;;;;;;10.18;3.60;;;;;;;1.87;83.57;99657.78;5034248;28;20068;-69
2022/11/25 01:09:24;;;;;;;1.48;1.38;;;;;;;1.81;83.20;99655.06;5034174;28;20141;-69
2022/11/25 01:11:53;;;;;;;2.17;1.98;;;;;;;1.58;83.17;99630.81;5034361;28;20060;-70
2022/11/25 01:14:24;;;;;;;3.73;3.43;;;;;;;1.69;83.33;99655.50;5033987;28;20045;-69
2022/11/25 01:16:53;;;;;;;5.32;4.82;;;;;;;1.66;82.73;99662.06;5034366;28;20388;-69
2022/11/25 01:19:21;;;;;;;4.32;3.10;;;;;;;1.68;83.64;99663.84;5032998;28;20511;-69
2022/11/25 01:21:50;;;;;;;3.10;2.85;;;;;;;1.70;83.53;99668.94;5033131;28;20568;-69
2022/11/25 01:24:19;;;;;;;3.17;2.97;;;;;;;1.64;82.67;99662.03;5049198;28;20038;-69
2022/11/25 01:26:48;;;;;;;1.50;1.40;;;;;;;1.63;82.67;99667.03;5033902;28;20045;-69
2022/11/25 01:29:19;;;;;;;4.82;3.45;;;;;;;1.53;83.37;99662.47;5032957;28;20045;-69
2022/11/25 01:31:49;;;;;;;3.33;2.92;;;;;;;1.54;83.11;99666.69;5034172;28;20045;-70
2022/11/25 01:34:23;;;;;;;5.40;4.10;;;;;;;1.52;82.94;99658.25;5033761;28;20052;-69
2022/11/25 01:36:51;;;;;;;4.45;3.65;;;;;;;1.60;83.26;99674.47;5049182;28;20041;-70
2022/11/25 01:39:21;;;;;;;3.75;3.45;;;;;;;1.51;83.08;99672.50;5033988;28;20042;-69
2022/11/25 01:41:59;;;;;;;4.70;4.30;;;;;;;1.50;83.62;99665.75;5049113;28;20049;-70
2022/11/25 01:44:29;;;;;;;2.63;2.43;;;;;;;1.47;83.21;99675.69;5049235;28;20038;-70
2022/11/25 01:47:05;;;;;;;6.97;4.25;;;;;;;1.45;83.84;99682.31;5033949;28;20079;-70
2022/11/25 01:49:39;;;;;;;10.93;3.08;;;;;;;1.41;83.13;99682.16;5033573;28;20499;-70
2022/11/25 01:52:15;;;;;;;6.28;4.45;;;;;;;1.43;84.05;99670.50;5033605;28;20049;-70
2022/11/25 01:54:50;;;;;;;1.33;1.23;;;;;;;1.51;83.63;99676.66;5033275;28;20064;-70
2022/11/25 01:57:24;;;;;;;1.17;1.13;;;;;;;1.51;84.21;99676.66;5033448;28;20487;-70
2022/11/25 01:59:58;;;;;;;2.45;2.25;;;;;;;1.53;83.97;99687.63;5033515;28;20049;-70
2022/11/25 02:02:29;;;;;;;1.45;1.35;;;;;;;1.50;83.83;99683.34;5033411;28;20045;-70
2022/11/25 02:05:00;;;;;;;2.03;1.83;;;;;;;1.38;83.90;99669.47;5033618;28;20487;-70
2022/11/25 02:07:33;;;;;;;2.25;2.05;;;;;;;1.48;83.94;99687.47;5048893;28;20045;-70
2022/11/25 02:10:06;;;;;;;2.35;2.08;;;;;;;1.46;83.96;99683.19;5033714;28;20136;-70
2022/11/25 02:12:37;;;;;;;2.45;2.28;;;;;;;1.49;84.18;99698.38;5037537;28;20124;-70
2022/11/25 02:15:07;;;;;;;2.38;2.22;;;;;;;1.41;83.54;99689.72;5037444;28;20049;-70
2022/11/25 02:17:40;;;;;;;1.63;1.52;;;;;;;1.34;84.22;99694.50;5052890;28;20522;-70
2022/11/25 02:20:11;;;;;;;3.40;3.10;;;;;;;1.33;83.95;99692.81;5037385;28;20054;-70
2022/11/25 02:22:52;;;;;;;4.70;3.53;;;;;;;1.35;84.23;99696.22;5037328;28;20053;-70
2022/11/25 02:25:25;;;;;;;2.85;2.53;;;;;;;1.31;84.30;99699.44;5052640;28;20069;-70
2022/11/25 02:28:00;;;;;;;2.97;2.65;;;;;;;1.30;83.85;99707.78;5037530;28;20057;-70
2022/11/25 02:30:29;;;;;;;5.25;3.70;;;;;;;1.25;84.64;99688.28;5036810;28;20050;-70
2022/11/25 02:32:59;;;;;;;3.67;2.95;;;;;;;1.37;84.43;99708.00;5037045;28;20045;-70
2022/11/25 02:35:32;;;;;;;4.93;4.43;;;;;;;1.12;83.56;99682.00;5037407;28;20041;-70
2022/11/25 02:38:09;;;;;;;3.83;3.53;;;;;;;1.20;83.60;99698.19;5052452;28;20491;-70
2022/11/25 02:40:46;;;;;;;5.88;5.05;;;;;;;1.16;83.64;99698.88;5037234;28;20076;-70
2022/11/25 02:43:17;;;;;;;6.60;1.83;;;;;;;1.09;83.52;99696.09;5052425;28;20043;-70
2022/11/25 02:45:57;;;;;;;1.35;1.10;;;;;;;1.14;84.16;99700.50;5052258;28;20061;-71
2022/11/25 02:48:27;;;;;;;3.55;3.17;;;;;;;0.79;83.45;99640.56;5052256;28;20053;-71
2022/11/25 02:51:20;;;;;;;2.22;2.10;;;;;;;1.14;84.16;99694.59;5052255;28;20042;-71
2022/11/25 02:53:50;;;;;;;3.83;3.53;;;;;;;1.28;83.62;99704.34;5036070;28;20046;-70
2022/11/25 02:56:24;;;;;;;2.33;2.15;;;;;;;1.35;83.85;99711.31;5036484;28;20085;-71
2022/11/25 02:58:53;;;;;;;2.65;2.45;;;;;;;1.23;83.89;99705.84;5036631;28;20042;-71
2022/11/25 03:01:25;;;;;;;1.95;1.83;;;;;;;1.38;84.62;99719.75;5035459;28;20080;-71
2022/11/25 03:03:54;;;;;;;3.20;2.50;;;;;;;1.40;84.55;99718.16;5051953;28;20041;-71
2022/11/25 03:06:23;;;;;;;2.45;2.30;;;;;;;1.32;83.79;99721.25;5036409;28;20049;-71
2022/11/25 03:08:53;;;;;;;3.25;2.42;;;;;;;1.31;83.67;99709.50;5036426;28;20049;-71
2022/11/25 03:12:17;;;;;;;3.60;2.17;;;;;;;1.39;84.61;99721.47;5051811;28;20045;-71
2022/11/25 03:14:14;;;;;;;1.85;1.75;;;;;;;1.34;84.15;99718.81;5036203;28;20042;-71
2022/11/25 03:16:43;;;;;;;3.17;1.98;;;;;;;1.27;84.37;99722.72;5051758;28;20049;-71
2022/11/25 03:19:12;;;;;;;1.77;1.67;;;;;;;1.17;83.78;99710.66;5035335;28;20041;-71
2022/11/25 03:21:41;;;;;;;2.97;2.80;;;;;;;1.23;84.08;99720.91;5036107;28;20038;-71
2022/11/25 03:24:10;;;;;;;6.10;3.87;;;;;;;1.20;83.76;99720.81;5035618;28;20041;-71
2022/11/25 03:26:40;;;;;;;8.93;2.92;;;;;;;1.14;83.54;99725.63;5036366;28;20395;-71
2022/11/25 03:29:10;;;;;;;7.80;3.65;;;;;;;0.98;83.95;99713.28;5051484;28;20045;-71
2022/11/25 03:31:39;;;;;;;3.78;3.42;;;;;;;1.02;83.43;99734.34;5036604;28;20471;-71
2022/11/25 03:34:11;;;;;;;4.65;4.07;;;;;;;0.93;83.25;99734.88;5036035;28;20515;-71
2022/11/25 03:36:41;;;;;;;2.45;2.25;;;;;;;0.92;83.38;99742.31;5036050;28;20148;-71
2022/11/25 03:39:10;;;;;;;2.35;1.55;;;;;;;0.92;83.69;99748.22;5051403;28;20057;-70
2022/11/25 03:41:40;;;;;;;8.40;3.03;;;;;;;0.92;83.64;99743.19;5052116;28;20057;-71
2022/11/25 03:44:09;;;;;;;3.55;3.28;;;;;;;0.90;83.46;99738.91;5051246;28;20053;-71
2022/11/25 03:46:37;;;;;;;2.97;2.70;;;;;;;0.87;83.50;99744.66;5051120;28;20120;-71
2022/11/25 03:49:08;;;;;;;1.88;1.77;;;;;;;0.83;82.92;99752.91;5035674;28;20057;-71
2022/11/25 03:51:37;;;;;;;4.38;4.03;;;;;;;0.85;83.31;99751.28;5068081;28;20499;-71
2022/11/25 03:54:05;;;;;;;11.25;3.47;;;;;;;0.80;83.37;99731.81;5034993;28;20510;-71
2022/11/25 03:56:56;;;;;;;1.97;1.80;;;;;;;1.01;83.43;99748.56;5035370;28;20049;-70
2022/11/25 03:59:25;;;;;;;6.53;3.42;;;;;;;1.10;84.02;99753.94;5034622;28;20281;-71
2022/11/25 04:01:53;;;;;;;5.35;4.88;;;;;;;1.14;83.76;99760.81;5050834;28;20041;-70
2022/11/25 04:04:23;;;;;;;2.67;2.47;;;;;;;1.13;83.50;99756.56;5035440;28;20060;-71
2022/11/25 04:06:53;;;;;;;7.10;3.55;;;;;;;1.19;83.73;99759.31;5035338;28;20041;-70
2022/11/25 04:09:24;;;;;;;3.08;2.78;;;;;;;1.19;83.86;99754.28;5051000;28;20049;-71
2022/11/25 04:14:50;;;;;;;3.05;2.55;;;;;;;1.28;84.67;99759.66;5017161;28;20103;-71
2022/11/25 04:17:19;;;;;;;1.50;1.40;;;;;;;1.32;84.78;99756.44;5050770;28;20581;-72
2022/11/25 04:19:48;;;;;;;2.25;1.67;;;;;;;1.29;84.40;99761.38;5033953;28;20107;-71
2022/11/25 04:22:18;;;;;;;4.47;3.90;;;;;;;1.31;84.40;99767.31;5035063;28;20065;-71
2022/11/25 04:24:48;;;;;;;9.30;3.67;;;;;;;1.39;84.72;99766.75;5035314;28;20053;-71
2022/11/25 04:27:24;;;;;;;3.15;2.85;;;;;;;1.43;84.85;99761.00;5035252;28;20046;-71
2022/11/25 04:29:54;;;;;;;2.35;2.15;;;;;;;1.44;84.69;99765.25;5034953;28;20045;-71
2022/11/25 04:32:23;;;;;;;3.27;2.70;;;;;;;1.45;85.26;99756.88;5050312;28;20033;-71
2022/11/25 04:34:52;;;;;;;5.05;4.65;;;;;;;1.38;85.02;99754.94;5049240;28;20072;-71
2022/11/25 04:37:22;;;;;;;4.97;3.53;;;;;;;1.29;84.84;99737.88;5035122;28;20578;-70
2022/11/25 04:39:51;;;;;;;0.93;0.93;;;;;;;1.42;85.00;99766.84;5050119;28;20500;-71
2022/11/25 04:45:03;;;;;;;4.35;3.53;;;;;;;1.44;85.82;99775.31;5034653;28;20042;-71
2022/11/25 04:47:55;;;;;;;4.15;2.05;;;;;;;1.43;85.46;99763.53;5033276;28;20033;-70
2022/11/25 04:50:25;;;;;;;4.97;3.67;;;;;;;1.45;85.75;99766.94;5034546;28;20508;-70
2022/11/25 04:53:14;;;;;;;3.35;3.08;;;;;;;1.39;85.54;99756.69;5034453;28;20091;-71
2022/11/25 04:55:43;;;;;;;;;;;;;;;1.41;85.53;99770.16;5034644;28;20051;-70
2022/11/25 04:59:38;;;;;;;1.83;1.73;;;;;;;1.43;85.06;99778.59;5034435;28;19920;-71
2022/11/25 05:01:06;;;;;;;30.98;3.17;;;;;;;1.45;85.08;99782.03;5050060;28;20053;-71
2022/11/25 05:03:36;;;;;;;2.65;2.45;;;;;;;1.34;84.84;99764.06;5034620;28;20403;-72
2022/11/25 05:06:06;;;;;;;1.77;1.67;;;;;;;1.46;84.75;99786.28;5049609;28;20047;-71
2022/11/25 05:08:37;;;;;;;2.13;1.92;;;;;;;1.46;85.75;99782.09;5034251;28;20072;-71
2022/11/25 05:11:06;;;;;;;1.90;1.80;;;;;;;1.38;85.77;99770.03;5066176;28;20076;-70
2022/11/25 05:13:35;;;;;;;7.40;4.20;;;;;;;1.51;85.33;99789.81;5034446;28;20041;-71
2022/11/25 05:16:04;;;;;;;2.60;2.40;;;;;;;1.57;85.93;99792.53;5033258;28;20143;-71
2022/11/25 05:18:34;;;;;;;2.00;1.90;;;;;;;1.59;85.37;99788.41;5066121;28;20571;-70
2022/11/25 05:21:04;;;;;;;3.88;2.97;;;;;;;1.59;85.43;99794.31;5049756;28;20072;-71
2022/11/25 05:23:38;;;;;;;2.45;2.25;;;;;;;1.53;85.31;99791.59;5033981;28;20053;-70
2022/11/25 05:26:07;;;;;;;3.30;3.07;;;;;;;1.58;85.04;99809.34;5049304;28;20128;-69
2022/11/25 05:28:43;;;;;;;5.07;4.57;;;;;;;1.58;85.17;99816.91;5033104;28;20048;-70
2022/11/25 05:31:12;;;;;;;4.60;2.63;;;;;;;1.50;85.11;99818.25;5033856;28;20100;-70
2022/11/25 05:33:43;;;;;;;4.70;4.35;;;;;;;1.44;85.25;99815.53;5049510;28;20038;-71
2022/11/25 05:36:12;;;;;;;4.93;4.53;;;;;;;1.41;85.58;99810.38;5049535;28;20053;-71
2022/11/25 05:38:44;;;;;;;1.52;1.42;;;;;;;1.43;85.52;99813.81;5033880;28;20124;-71
2022/11/25 05:41:18;;;;;;;1.50;1.40;;;;;;;1.47;85.91;99825.69;5066080;28;20068;-71
2022/11/25 05:43:47;;;;;;;4.18;3.78;;;;;;;1.48;85.25;99815.69;5049038;28;20045;-71
2022/11/25 05:46:16;;;;;;;4.03;3.70;;;;;;;1.51;85.00;99817.47;5033291;28;20095;-71
2022/11/25 05:48:54;;;;;;;1.75;1.65;;;;;;;1.55;84.85;99821.81;5033648;28;20487;-70
2022/11/25 05:51:23;;;;;;;2.83;2.63;;;;;;;1.52;85.03;99825.06;5049061;28;20131;-71
2022/11/25 05:53:54;;;;;;;1.77;1.67;;;;;;;1.50;85.47;99825.81;5033540;28;20053;-70
2022/11/25 05:56:28;;;;;;;2.42;2.22;;;;;;;1.50;85.94;99828.31;5048621;28;20060;-71
2022/11/25 05:59:23;;;;;;;4.20;3.53;;;;;;;1.35;85.43;99816.91;5033710;28;20496;-70
2022/11/25 06:02:02;;;;;;;4.15;2.90;;;;;;;1.31;84.81;99845.25;5033511;28;20049;-71
2022/11/25 06:04:33;;;;;;;6.50;2.72;;;;;;;1.17;85.09;99822.88;5033338;28;20045;-71
2022/11/25 06:07:03;;;;;;;2.97;2.38;;;;;;;1.16;85.42;99824.53;5065858;28;20503;-71
2022/11/25 06:09:33;;;;;;;3.60;3.30;;;;;;;1.25;84.73;99839.09;5032345;28;20065;-71
2022/11/25 06:12:01;;;;;;;5.00;4.03;;;;;;;1.32;85.05;99849.44;5031950;28;20052;-71
2022/11/25 06:14:31;;;;;;;7.78;6.95;;;;;;;1.32;85.50;99846.94;5033302;28;20053;-71
2022/11/25 06:17:01;;;;;;;7.32;2.10;;;;;;;1.28;84.66;99845.13;5065638;28;20088;-71
2022/11/25 06:19:36;;;;;;;10.32;3.22;;;;;;;1.24;85.38;99842.44;5033517;28;20073;-71
2022/11/25 06:22:05;;;;;;;3.25;2.05;;;;;;;1.31;85.28;99855.28;5048607;28;20053;-71
2022/11/25 06:24:35;;;;;;;11.10;5.50;;;;;;;1.37;85.19;99848.78;5033229;28;20045;-70
2022/11/25 06:27:07;;;;;;;2.45;2.25;;;;;;;1.33;84.92;99818.50;5033164;28;20038;-71
2022/11/25 06:29:37;;;;;;;10.77;6.03;;;;;;;1.42;84.92;99833.06;5033170;28;20064;-70
2022/11/25 06:32:06;;;;;;;2.05;1.90;;;;;;;1.42;85.51;99842.28;5033165;28;20041;-71
2022/11/25 06:34:44;;;;;;;2.85;1.55;;;;;;;1.58;84.92;99859.66;5033157;28;20049;-71
2022/11/25 06:37:29;;;;;;;2.25;2.15;;;;;;;1.65;85.22;99861.59;5033252;28;20125;-71
2022/11/25 06:39:57;;;;;;;1.25;1.23;;;;;;;1.74;85.86;99849.34;5032999;28;20041;-70
2022/11/25 06:42:27;;;;;;;4.38;2.83;;;;;;;1.93;85.61;99867.69;5032958;28;20037;-71
2022/11/25 06:44:55;;;;;;;4.43;4.07;;;;;;;1.99;85.45;99859.53;5033068;28;20088;-71
2022/11/25 06:47:24;;;;;;;2.17;1.92;;;;;;;2.16;85.11;99878.56;5033201;28;20527;-71
2022/11/25 06:49:55;;;;;;;3.25;3.00;;;;;;;2.24;85.46;99883.88;5033334;28;20033;-70
2022/11/25 06:52:24;;;;;;;3.63;2.70;;;;;;;2.21;84.93;99883.78;5032953;28;20053;-71
2022/11/25 06:54:53;;;;;;;4.00;3.60;;;;;;;2.20;85.35;99892.13;5032678;28;20077;-70
2022/11/25 06:57:21;;;;;;;3.03;2.72;;;;;;;2.12;84.96;99885.97;5049070;28;20045;-71
2022/11/25 06:59:50;;;;;;;3.40;3.10;;;;;;;2.10;84.84;99897.63;5036526;28;20140;-71
2022/11/25 07:02:19;;;;;;;4.60;4.22;;;;;;;2.10;84.57;99893.47;5036580;28;20076;-71
2022/11/25 07:04:48;;;;;;;3.17;2.40;;;;;;;2.03;84.76;99891.53;5036430;28;20048;-71
2022/11/25 07:07:18;;;;;;;3.93;3.60;;;;;;;1.97;84.49;99896.31;5036733;28;20037;-71
2022/11/25 07:09:47;;;;;;;3.20;3.00;;;;;;;1.93;84.44;99894.50;5036721;28;20283;-71
2022/11/25 07:12:16;;;;;;;3.38;3.10;;;;;;;1.97;84.72;99901.34;5036755;28;20042;-71
2022/11/25 07:14:45;;;;;;;2.22;2.03;;;;;;;2.04;85.36;99908.34;5052029;28;20495;-71
2022/11/25 07:17:13;;;;;;;3.60;2.92;;;;;;;2.15;84.47;99911.25;5036624;28;20380;-71
2022/11/25 07:19:44;;;;;;;6.25;3.80;;;;;;;2.18;84.86;99912.22;5036213;28;20037;-71
2022/11/25 07:22:12;;;;;;;2.83;2.58;;;;;;;2.18;84.58;99897.13;5036213;28;20099;-70
2022/11/25 07:24:42;;;;;;;2.97;2.72;;;;;;;2.23;84.86;99920.78;5036137;28;20038;-71
2022/11/25 07:27:11;;;;;;;4.78;3.80;;;;;;;2.28;85.25;99923.50;5036058;28;20044;-71
2022/11/25 07:29:40;;;;;;;8.77;3.70;;;;;;;2.35;84.95;99931.28;5036319;28;20045;-71
2022/11/25 07:32:32;;;;;;;5.00;4.18;;;;;;;2.32;85.15;99911.06;5036302;28;20403;-71
2022/11/25 07:35:01;;;;;;;3.47;3.28;;;;;;;2.36;84.08;99919.56;5035985;28;20061;-71
2022/11/25 07:37:29;;;;;;;1.75;1.63;;;;;;;2.40;84.60;99929.78;5046291;28;20064;-71
2022/11/25 07:39:59;;;;;;;1.95;1.85;;;;;;;2.41;85.12;99934.03;5055755;28;20037;-71
2022/11/25 07:42:28;;;;;;;3.28;2.63;;;;;;;2.42;84.74;99939.94;5054707;28;20029;-71
2022/11/25 07:44:57;;;;;;;1.67;1.58;;;;;;;2.22;84.13;99913.19;5055688;28;20041;-71
2022/11/25 07:47:46;;;;;;;3.03;2.83;;;;;;;2.29;84.07;99920.16;5053998;28;20510;-71
2022/11/25 07:50:14;;;;;;;6.75;4.43;;;;;;;2.33;84.55;99930.38;5047723;28;20286;-70
2022/11/25 07:52:43;;;;;;;2.15;1.98;;;;;;;2.28;85.11;99920.97;5055823;28;20407;-70
2022/11/25 07:55:13;;;;;;;3.05;2.78;;;;;;;2.36;84.96;99917.91;5054228;28;20067;-70
2022/11/25 07:57:42;;;;;;;3.63;3.35;;;;;;;2.24;84.45;99902.38;5041052;28;20054;-70
2022/11/25 08:00:13;;;;;;;4.45;4.05;;;;;;;2.37;85.04;99923.81;5035823;28;20065;-70
2022/11/25 08:02:42;;;;;;;16.05;5.90;;;;;;;2.28;84.92;99904.19;5035375;28;20495;-71
2022/11/25 08:05:11;;;;;;;3.15;2.92;;;;;;;2.41;84.64;99923.97;5035667;28;20045;-70
2022/11/25 08:07:39;;;;;;;4.33;2.93;;;;;;;2.42;84.98;99922.31;5035305;28;20038;-71
2022/11/25 08:10:09;;;;;;;44.33;3.50;;;;;;;2.41;84.36;99941.59;5035310;28;20115;-70
2022/11/25 08:12:39;;;;;;;;;;;;;;;2.41;84.68;99934.03;5036353;28;20069;-71
2022/11/25 08:15:08;;;;;;;6.63;4.03;;;;;;;2.50;85.25;99941.91;5046184;28;19927;-72
2022/11/25 08:17:37;;;;;;;3.88;3.58;;;;;;;2.53;84.93;99937.00;5035552;28;20048;-70
2022/11/25 08:20:07;;;;;;;2.28;1.88;;;;;;;2.55;85.41;99937.91;5035055;28;20044;-71
2022/11/25 08:22:36;;;;;;;1.70;1.30;;;;;;;2.55;85.10;99930.34;5035100;28;20061;-70
2022/11/25 08:25:06;;;;;;;11.43;5.22;;;;;;;2.63;84.79;99934.00;5035033;28;20041;-71
2022/11/25 08:27:34;;;;;;;3.20;2.90;;;;;;;2.57;85.12;99912.75;5034841;28;20480;-71
2022/11/25 08:30:06;;;;;;;2.30;2.10;;;;;;;2.72;85.57;99943.50;5036634;28;20049;-71
2022/11/25 08:32:37;;;;;;;3.10;2.80;;;;;;;2.65;85.28;99917.25;5034731;28;20053;-70
2022/11/25 08:35:08;;;;;;;1.40;1.30;;;;;;;2.79;84.57;99934.50;5054183;28;20045;-71
2022/11/25 08:37:37;;;;;;;2.95;2.45;;;;;;;2.80;85.38;99932.06;5053618;28;20045;-70
2022/11/25 08:40:07;;;;;;;10.35;6.32;;;;;;;2.69;85.26;99914.03;5051671;28;20029;-70
2022/11/25 08:42:36;;;;;;;3.83;2.13;;;;;;;2.92;84.74;99931.59;5053019;28;20037;-71
2022/11/25 08:45:08;;;;;;;3.53;2.93;;;;;;;3.02;85.20;99938.66;5051384;28;20036;-71
2022/11/25 08:47:37;;;;;;;1.58;1.48;;;;;;;3.08;85.27;99943.91;5053674;28;20302;-72
2022/11/25 08:50:08;;;;;;;4.20;3.75;;;;;;;3.05;85.08;99946.31;5050698;28;20025;-71
2022/11/25 08:52:37;;;;;;;4.55;3.95;;;;;;;3.07;84.60;99942.19;5042490;28;20095;-71
2022/11/25 08:55:07;;;;;;;2.58;2.42;;;;;;;3.00;85.48;99926.00;5043746;28;20037;-71
2022/11/25 08:57:36;;;;;;;2.60;1.95;;;;;;;3.11;84.39;99954.09;5043070;28;20042;-71
2022/11/25 09:00:07;;;;;;;1.63;1.52;;;;;;;3.11;84.52;99951.56;5045136;28;20048;-71
2022/11/25 09:02:37;;;;;;;4.70;4.38;;;;;;;3.14;84.99;99954.19;5053819;28;20053;-70
2022/11/25 09:05:06;;;;;;;4.60;4.30;;;;;;;3.14;85.51;99955.03;5054242;28;20041;-71
2022/11/25 09:07:34;;;;;;;3.50;3.17;;;;;;;3.03;84.61;99940.38;5054314;28;20106;-70
2022/11/25 09:10:03;;;;;;;2.22;2.03;;;;;;;3.14;84.90;99959.25;5054038;28;20045;-71
2022/11/25 09:12:32;;;;;;;;;;;;;;;3.22;84.94;99962.84;5054171;28;20041;-72
2022/11/25 09:15:01;;;;;;;3.67;3.40;;;;;;;3.22;84.91;99965.38;5055142;28;19928;-70
2022/11/25 09:17:33;;;;;;;4.75;4.35;;;;;;;3.21;85.79;99956.97;5054051;28;20068;-70
2022/11/25 09:20:04;;;;;;;7.80;3.97;;;;;;;3.18;85.50;99948.44;5053384;28;20055;-70
2022/11/25 09:22:32;;;;;;;3.80;2.97;;;;;;;3.37;85.32;99960.84;5052789;28;20080;-71
2022/11/25 09:25:01;;;;;;;6.88;2.45;;;;;;;3.50;85.75;99960.44;5043031;28;20033;-70
2022/11/25 09:27:31;;;;;;;21.77;5.03;;;;;;;3.55;85.62;99958.06;5034010;28;20065;-70
2022/11/25 09:29:59;;;;;;;;;;;;;;;3.58;85.36;99964.03;5034766;28;20132;-71
2022/11/25 09:32:29;;;;;;;5.82;3.30;;;;;;;3.68;85.02;99961.00;5033748;28;19921;-71
2022/11/25 09:34:59;;;;;;;1.52;1.42;;;;;;;3.79;85.11;99959.66;5043946;28;20045;-71
2022/11/25 09:37:27;;;;;;;2.40;2.22;;;;;;;3.84;85.65;99957.28;5050657;28;20041;-71
2022/11/25 09:39:57;;;;;;;16.05;5.47;;;;;;;3.91;85.57;99960.00;5051969;28;20047;-71
2022/11/25 09:48:06;;;;;;;4.07;3.40;;;;;;;4.21;85.20;99954.16;5050590;28;20073;-71
2022/11/25 09:50:49;;;;;;;4.03;3.72;;;;;;;4.28;85.19;99945.94;5050231;28;20037;-71
2022/11/25 09:53:34;;;;;;;2.95;2.65;;;;;;;4.34;85.00;99936.88;5050796;28;20487;-71
2022/11/25 09:56:11;;;;;;;1.73;1.63;;;;;;;4.37;85.11;99946.19;5051083;28;20061;-71
2022/11/25 09:58:46;;;;;;;3.75;3.45;;;;;;;4.41;84.94;99953.94;5053240;28;20057;-71
2022/11/25 10:01:19;;;;;;;11.95;5.03;;;;;;;4.48;84.99;99954.94;5053469;28;20465;-71
2022/11/25 10:03:53;;;;;;;4.38;3.58;;;;;;;4.54;84.75;99955.09;5051909;28;20551;-67
2022/11/25 10:06:27;;;;;;;5.00;3.92;;;;;;;4.56;84.83;99958.53;5052417;28;20395;-68
2022/11/25 10:08:58;;;;;;;5.18;2.05;;;;;;;4.61;85.26;99960.38;5046289;28;20055;-68
2022/11/25 10:11:34;;;;;;;2.83;2.63;;;;;;;4.73;85.12;99964.88;5040355;28;20080;-68
2022/11/25 10:14:11;;;;;;;3.97;3.53;;;;;;;4.86;85.48;99954.31;5053109;28;20053;-72
2022/11/25 10:16:49;;;;;;;2.35;2.15;;;;;;;4.93;85.42;99958.69;5049745;28;20114;-69
2022/11/25 10:19:34;;;;;;;3.28;1.83;;;;;;;4.95;85.24;99958.72;5053250;28;20082;-68
2022/11/25 10:22:22;;;;;;;3.75;3.42;;;;;;;5.03;85.25;99954.75;5045938;28;20464;-68
2022/11/25 10:24:54;;;;;;;1.55;1.45;;;;;;;5.12;85.40;99958.34;5053236;28;20507;-68
2022/11/25 10:27:28;;;;;;;3.63;1.98;;;;;;;5.13;85.21;99965.13;5050926;28;20049;-68
2022/11/25 10:30:05;;;;;;;2.33;2.13;;;;;;;5.19;85.08;99961.88;5052840;28;20048;-68
2022/11/25 10:32:42;;;;;;;6.38;1.85;;;;;;;5.19;85.22;99960.22;5055884;28;20084;-68
2022/11/25 10:35:25;;;;;;;3.72;3.08;;;;;;;5.24;85.24;99945.16;5057032;28;20053;-68
2022/11/25 10:37:59;;;;;;;3.28;3.00;;;;;;;5.32;85.00;99947.06;5054488;28;20041;-70
2022/11/25 10:40:28;;;;;;;3.92;2.50;;;;;;;5.40;85.46;99945.56;5056989;28;20041;-70
2022/11/25 10:42:56;;;;;;;2.72;2.50;;;;;;;5.51;85.22;99943.28;5056900;28;20056;-70
2022/11/25 10:45:32;;;;;;;4.88;2.38;;;;;;;5.59;84.95;99935.88;5054745;28;20041;-71
2022/11/25 10:48:17;;;;;;;2.80;2.60;;;;;;;5.69;85.27;99938.63;5042899;28;20073;-70
2022/11/25 10:51:03;;;;;;;1.80;1.70;;;;;;;5.83;85.33;99931.38;5036715;28;20083;-70
2022/11/25 10:53:33;;;;;;;4.00;3.03;;;;;;;5.89;84.82;99929.00;5036342;28;20046;-70
2022/11/25 10:56:03;;;;;;;2.83;2.47;;;;;;;5.98;84.07;99936.78;5036458;28;20119;-70
2022/11/25 10:58:34;;;;;;;5.07;4.20;;;;;;;6.10;84.03;99926.91;5047736;28;20380;-72
2022/11/25 11:01:07;;;;;;;5.15;4.70;;;;;;;6.20;83.99;99933.88;5036552;28;20061;-70
2022/11/25 11:03:36;;;;;;;4.55;3.70;;;;;;;6.19;83.34;99927.09;5036881;28;20073;-71
2022/11/25 11:06:04;;;;;;;4.43;3.60;;;;;;;6.21;83.12;99935.59;5038792;28;20048;-72
2022/11/25 11:08:39;;;;;;;2.47;2.05;;;;;;;6.31;82.94;99932.41;5049729;28;20051;-71
2022/11/25 11:11:14;;;;;;;3.83;3.53;;;;;;;6.31;82.27;99942.56;5041358;28;20046;-71
2022/11/25 11:13:43;;;;;;;4.55;3.92;;;;;;;6.16;82.53;99916.06;5036421;28;20107;-71
2022/11/25 11:16:27;;;;;;;2.75;2.50;;;;;;;6.34;82.37;99946.81;5036603;28;20502;-71
2022/11/25 11:18:57;;;;;;;6.32;4.43;;;;;;;6.43;82.30;99952.09;5036566;28;20487;-71
2022/11/25 11:21:31;;;;;;;2.30;2.03;;;;;;;6.50;82.03;99948.88;5041777;28;20053;-71
2022/11/25 11:24:02;;;;;;;4.28;3.42;;;;;;;6.50;82.27;99944.63;5054434;28;20039;-71
2022/11/25 11:26:34;;;;;;;3.80;3.28;;;;;;;6.38;82.17;99919.03;5055918;28;20505;-71
2022/11/25 11:29:06;;;;;;;11.90;3.67;;;;;;;6.58;81.86;99945.63;5048859;28;20069;-71
2022/11/25 11:31:47;;;;;;;5.07;3.13;;;;;;;6.57;81.66;99946.50;5053219;28;20060;-71
2022/11/25 11:34:43;;;;;;;2.58;2.38;;;;;;;6.51;81.94;99950.56;5055807;28;20103;-71
2022/11/25 11:37:32;;;;;;;5.05;3.08;;;;;;;6.50;82.29;99943.78;5056168;28;20059;-71
2022/11/25 11:40:21;;;;;;;3.65;3.35;;;;;;;6.54;81.27;99951.50;5048338;28;20081;-72
2022/11/25 11:42:58;;;;;;;;;;;;;;;6.58;81.68;99948.19;5055816;28;20132;-71
2022/11/25 11:45:47;;;;;;;3.72;3.15;;;;;;;6.63;81.60;99941.50;5049138;28;20371;-71
2022/11/25 11:48:24;;;;;;;10.00;3.67;;;;;;;6.68;81.35;99939.06;5037151;28;20037;-71
2022/11/25 11:51:01;;;;;;;12.60;2.78;;;;;;;6.72;81.24;99936.59;5044479;28;20058;-71
2022/11/25 11:53:34;;;;;;;3.70;3.38;;;;;;;6.80;81.36;99943.50;5047860;28;20069;-71
2022/11/25 11:56:11;;;;;;;2.55;2.35;;;;;;;6.83;81.50;99943.56;5035914;28;20049;-71
2022/11/25 11:59:19;;;;;;;3.33;2.97;;;;;;;6.84;81.15;99935.16;5050401;28;20115;-71
2022/11/25 12:02:06;;;;;;;6.55;5.63;;;;;;;6.85;80.81;99941.91;5038830;28;20102;-71
2022/11/25 12:04:40;;;;;;;4.97;4.20;;;;;;;6.82;80.01;99941.84;5055728;28;20063;-71
2022/11/25 12:07:15;;;;;;;5.80;5.30;;;;;;;6.86;80.17;99938.56;5054366;28;20040;-71
2022/11/25 12:09:50;;;;;;;3.30;2.92;;;;;;;6.84;80.39;99940.22;5054638;28;20158;-71
2022/11/25 12:12:28;;;;;;;3.80;3.45;;;;;;;6.86;80.10;99933.50;5035110;28;20136;-71
2022/11/25 12:15:05;;;;;;;3.50;2.97;;;;;;;6.87;80.34;99935.19;5035257;28;20060;-71
2022/11/25 12:17:40;;;;;;;4.90;3.67;;;;;;;6.85;79.86;99934.31;5035553;28;20136;-71
2022/11/25 12:20:19;;;;;;;2.53;2.33;;;;;;;6.89;79.85;99939.44;5035156;28;20049;-71
2022/11/25 12:22:54;;;;;;;4.75;3.75;;;;;;;6.90;80.42;99942.84;5042063;28;20487;-71
2022/11/25 12:25:25;;;;;;;11.02;5.40;;;;;;;6.90;80.78;99936.09;5035177;28;20049;-71